createdAt,value
2022-09-22T00:02:25.882Z,3.10
2022-09-22T00:04:58.540Z,2.30
2022-09-22T00:07:29.946Z,3.67
2022-09-22T00:09:59.747Z,3.40
2022-09-22T00:12:30.234Z,1.67
2022-09-22T00:15:09.902Z,2.77
2022-09-22T00:17:39.461Z,1.90
2022-09-22T00:20:19.832Z,2.80
2022-09-22T00:22:58.952Z,1.70
2022-09-22T00:25:26.717Z,4.10
2022-09-22T00:28:00.643Z,2.57
2022-09-22T00:30:31.250Z,4.40
2022-09-22T00:32:59.750Z,2.07
2022-09-22T00:35:29.477Z,2.00
2022-09-22T00:38:01.096Z,3.13
2022-09-22T00:40:30.181Z,2.20
2022-09-22T00:45:57.532Z,3.13
2022-09-22T00:48:39.278Z,4.03
2022-09-22T00:51:13.069Z,1.80
2022-09-22T00:53:42.012Z,2.83
2022-09-22T00:56:18.945Z,3.70
2022-09-22T00:58:58.069Z,10.10
2022-09-22T01:01:31.544Z,1.40
2022-09-22T01:03:59.897Z,1.60
2022-09-22T01:06:31.010Z,1.93
2022-09-22T01:09:01.286Z,3.40
2022-09-22T01:11:30.781Z,1.60
2022-09-22T01:14:19.716Z,2.10
2022-09-22T01:16:59.187Z,1.67
2022-09-22T01:20:19.756Z,2.90
2022-09-22T01:23:30.479Z,2.27
2022-09-22T01:26:19.569Z,2.00
2022-09-22T01:29:21.687Z,2.10
2022-09-22T01:32:08.238Z,3.40
2022-09-22T01:34:49.209Z,3.10
2022-09-22T01:37:39.465Z,2.50
2022-09-22T01:40:20.365Z,2.87
2022-09-22T01:42:55.766Z,3.97
2022-09-22T01:45:35.651Z,2.60
2022-09-22T01:48:15.409Z,3.50
2022-09-22T01:50:49.645Z,3.83
2022-09-22T01:53:39.517Z,3.33
2022-09-22T01:56:19.869Z,1.77
2022-09-22T01:59:14.038Z,3.77
2022-09-22T02:01:50.152Z,3.10
2022-09-22T02:04:41.614Z,3.97
2022-09-22T02:07:20.323Z,2.70
2022-09-22T02:09:51.277Z,2.33
2022-09-22T02:12:22.251Z,2.87
2022-09-22T02:14:51.312Z,2.27
2022-09-22T02:18:24.171Z,2.10
2022-09-22T02:20:19.322Z,1.97
2022-09-22T02:22:50.711Z,3.40
2022-09-22T02:25:21.070Z,1.97
2022-09-22T02:28:04.710Z,2.03
2022-09-22T02:30:40.258Z,2.77
2022-09-22T02:33:11.200Z,2.93
2022-09-22T02:35:41.663Z,2.63
2022-09-22T02:38:20.209Z,3.00
2022-09-22T02:41:06.228Z,2.03
2022-09-22T02:43:48.529Z,4.23
2022-09-22T02:46:29.600Z,2.80
2022-09-22T02:49:07.827Z,3.67
2022-09-22T02:51:42.239Z,6.43
2022-09-22T02:54:11.300Z,4.70
2022-09-22T02:56:39.030Z,3.20
2022-09-22T02:59:07.045Z,2.73
2022-09-22T03:01:39.906Z,3.60
2022-09-22T03:04:11.118Z,4.33
2022-09-22T03:06:41.615Z,5.17
2022-09-22T03:09:09.291Z,3.97
2022-09-22T03:12:00.138Z,3.77
2022-09-22T03:14:31.018Z,4.57
2022-09-22T03:17:03.097Z,3.00
2022-09-22T03:19:33.188Z,4.57
2022-09-22T03:22:04.538Z,4.20
2022-09-22T03:24:38.378Z,4.10
2022-09-22T03:27:11.358Z,5.07
2022-09-22T03:29:41.816Z,4.10
2022-09-22T03:32:09.652Z,5.20
2022-09-22T03:34:40.156Z,5.07
2022-09-22T03:37:11.526Z,4.33
2022-09-22T03:39:40.013Z,6.43
2022-09-22T03:42:10.208Z,3.43
2022-09-22T03:44:41.392Z,4.07
2022-09-22T03:47:12.479Z,4.70
2022-09-22T03:49:43.455Z,3.90
2022-09-22T03:52:19.670Z,3.80
2022-09-22T03:54:49.962Z,3.50
2022-09-22T03:57:19.057Z,4.03
2022-09-22T03:59:50.863Z,2.73
2022-09-22T04:02:18.728Z,5.50
2022-09-22T04:04:46.411Z,4.83
2022-09-22T04:07:15.464Z,2.40
2022-09-22T04:09:44.840Z,2.73
2022-09-22T04:12:19.652Z,1.43
2022-09-22T04:14:49.818Z,1.50
2022-09-22T04:17:20.379Z,2.23
2022-09-22T04:19:50.520Z,3.20
2022-09-22T04:22:21.386Z,2.20
2022-09-22T04:24:50.168Z,2.47
2022-09-22T04:27:21.110Z,1.90
2022-09-22T04:29:51.854Z,2.37
2022-09-22T04:32:21.008Z,4.63
2022-09-22T04:34:50.293Z,2.53
2022-09-22T04:37:21.501Z,4.67
2022-09-22T04:39:50.340Z,2.50
2022-09-22T04:42:20.199Z,2.57
2022-09-22T04:45:02.075Z,3.13
2022-09-22T04:47:30.416Z,2.90
2022-09-22T04:50:00.428Z,5.00
2022-09-22T04:52:31.346Z,3.57
2022-09-22T04:54:59.081Z,5.83
2022-09-22T04:57:26.819Z,4.43
2022-09-22T04:59:58.583Z,3.10
2022-09-22T05:02:30.073Z,8.63
2022-09-22T05:05:00.059Z,4.87
2022-09-22T05:07:31.413Z,5.37
2022-09-22T05:10:00.226Z,6.70
2022-09-22T05:12:31.566Z,2.93
2022-09-22T05:15:00.803Z,2.60
2022-09-22T05:17:31.543Z,5.67
2022-09-22T05:20:00.813Z,4.47
2022-09-22T05:23:09.031Z,4.53
2022-09-22T05:25:40.294Z,4.57
2022-09-22T05:28:11.177Z,5.37
2022-09-22T05:30:43.709Z,4.00
2022-09-22T05:33:11.630Z,4.43
2022-09-22T05:35:39.378Z,6.20
2022-09-22T05:38:11.681Z,4.17
2022-09-22T05:40:41.073Z,3.73
2022-09-22T05:43:09.134Z,5.00
2022-09-22T05:45:40.811Z,4.50
2022-09-22T05:48:10.474Z,5.80
2022-09-22T05:50:41.818Z,3.63
2022-09-22T05:53:16.952Z,4.00
2022-09-22T05:55:49.318Z,5.30
2022-09-22T05:58:33.718Z,4.37
2022-09-22T06:01:01.597Z,5.50
2022-09-22T06:03:30.398Z,5.00
2022-09-22T06:06:00.262Z,4.13
2022-09-22T06:08:32.017Z,4.53
2022-09-22T06:11:00.431Z,3.97
2022-09-22T06:13:30.421Z,4.17
2022-09-22T06:16:01.807Z,3.43
2022-09-22T06:18:31.409Z,5.17
2022-09-22T06:21:00.367Z,5.33
2022-09-22T06:23:28.992Z,4.07
2022-09-22T06:26:01.245Z,4.97
2022-09-22T06:28:30.390Z,4.30
2022-09-22T06:31:00.910Z,6.27
2022-09-22T06:33:31.372Z,4.57
2022-09-22T06:36:01.944Z,4.10
2022-09-22T06:38:32.262Z,5.33
2022-09-22T06:41:07.924Z,6.10
2022-09-22T06:43:40.294Z,5.73
2022-09-22T06:46:15.824Z,6.10
2022-09-22T06:48:46.614Z,10.23
2022-09-22T06:51:19.000Z,6.53
2022-09-22T06:53:52.064Z,6.23
2022-09-22T06:56:21.736Z,7.60
2022-09-22T06:59:08.848Z,7.60
2022-09-22T07:01:51.109Z,6.10
2022-09-22T07:04:21.796Z,6.50
2022-09-22T07:06:51.428Z,6.90
2022-09-22T07:09:20.101Z,6.13
2022-09-22T07:12:28.161Z,8.43
2022-09-22T07:15:07.671Z,7.67
2022-09-22T07:17:41.104Z,6.70
2022-09-22T07:20:10.936Z,7.30
2022-09-22T07:22:41.131Z,8.10
2022-09-22T07:25:09.843Z,9.73
2022-09-22T07:27:41.050Z,7.83
2022-09-22T07:30:14.996Z,9.00
2022-09-22T07:32:42.725Z,11.73
2022-09-22T07:35:10.716Z,12.23
2022-09-22T07:37:42.960Z,11.50
2022-09-22T07:40:30.434Z,10.20
2022-09-22T07:43:00.530Z,12.47
2022-09-22T07:45:36.255Z,14.77
2022-09-22T07:48:29.167Z,11.97
2022-09-22T07:51:01.060Z,13.53
2022-09-22T07:53:31.781Z,11.37
2022-09-22T07:56:21.133Z,14.70
2022-09-22T07:58:54.141Z,11.33
2022-09-22T08:01:39.002Z,10.70
2022-09-22T08:04:11.933Z,12.03
2022-09-22T08:06:40.795Z,12.47
2022-09-22T08:09:11.566Z,9.47
2022-09-22T08:11:49.180Z,12.27
2022-09-22T08:14:21.558Z,9.57
2022-09-22T08:17:08.139Z,10.93
2022-09-22T08:19:41.499Z,9.97
2022-09-22T08:22:12.649Z,10.43
2022-09-22T08:24:46.757Z,8.77
2022-09-22T08:27:19.034Z,10.03
2022-09-22T08:29:50.620Z,9.90
2022-09-22T08:32:21.983Z,7.07
2022-09-22T08:34:56.557Z,7.00
2022-09-22T08:37:32.238Z,8.50
2022-09-22T08:40:00.884Z,11.70
2022-09-22T08:42:31.496Z,8.73
2022-09-22T08:45:09.302Z,11.03
2022-09-22T08:50:59.132Z,11.13
2022-09-22T08:53:40.806Z,8.40
2022-09-22T08:56:30.675Z,8.90
2022-09-22T08:59:10.005Z,9.20
2022-09-22T09:02:01.652Z,8.70
2022-09-22T09:05:09.359Z,10.33
2022-09-22T09:08:01.032Z,8.10
2022-09-22T09:10:50.168Z,6.67
2022-09-22T09:13:50.970Z,11.00
2022-09-22T09:16:40.509Z,10.37
2022-09-22T09:19:30.467Z,8.23
2022-09-22T09:22:04.636Z,6.27
2022-09-22T09:27:39.718Z,7.03
2022-09-22T09:30:20.036Z,5.93
2022-09-22T09:32:55.907Z,5.20
2022-09-22T09:35:59.964Z,5.33
2022-09-22T09:38:35.571Z,6.97
2022-09-22T09:41:20.963Z,4.53
2022-09-22T09:43:57.086Z,5.97
2022-09-22T09:46:40.928Z,6.97
2022-09-22T09:49:20.914Z,8.07
2022-09-22T09:51:57.433Z,8.27
2022-09-22T09:54:41.051Z,4.57
2022-09-22T09:57:17.238Z,5.47
2022-09-22T10:00:29.046Z,8.37
2022-09-22T10:03:11.206Z,8.33
2022-09-22T10:05:41.418Z,6.07
2022-09-22T10:08:30.883Z,4.90
2022-09-22T10:11:01.966Z,5.50
2022-09-22T10:13:38.392Z,5.97
2022-09-22T10:16:30.685Z,5.73
2022-09-22T10:19:22.809Z,6.77
2022-09-22T10:21:51.214Z,8.83
2022-09-22T10:24:32.473Z,5.10
2022-09-22T10:27:02.615Z,7.50
2022-09-22T10:29:43.158Z,5.43
2022-09-22T10:32:19.939Z,6.50
2022-09-22T10:34:58.569Z,7.47
2022-09-22T10:37:31.503Z,6.63
2022-09-22T10:40:08.612Z,5.83
2022-09-22T10:42:48.144Z,8.00
2022-09-22T10:45:40.678Z,6.80
2022-09-22T10:48:31.238Z,6.00
2022-09-22T10:51:18.147Z,6.27
2022-09-22T10:54:06.445Z,5.53
2022-09-22T10:56:38.784Z,4.43
2022-09-22T10:59:39.668Z,4.50
2022-09-22T11:02:30.005Z,3.33
2022-09-22T11:05:11.305Z,1.20
2022-09-22T11:08:16.905Z,2.57
2022-09-22T11:11:11.491Z,3.37
2022-09-22T11:13:54.680Z,2.30
2022-09-22T11:16:47.023Z,3.00
2022-09-22T11:19:44.839Z,4.20
2022-09-22T11:22:50.164Z,3.27
2022-09-22T11:25:35.044Z,4.33
2022-09-22T11:28:21.903Z,2.20
2022-09-22T11:30:57.115Z,2.63
2022-09-22T11:33:48.763Z,2.57
2022-09-22T11:36:32.839Z,2.37
2022-09-22T11:39:20.731Z,1.97
2022-09-22T11:42:39.891Z,2.23
2022-09-22T11:45:30.770Z,2.63
2022-09-22T11:48:11.809Z,2.73
2022-09-22T11:51:00.764Z,1.77
2022-09-22T11:53:48.028Z,2.47
2022-09-22T11:56:42.024Z,2.73
2022-09-22T11:59:36.768Z,1.80
2022-09-22T12:02:26.827Z,4.20
2022-09-22T12:05:00.405Z,1.83
2022-09-22T12:07:32.688Z,2.03
2022-09-22T12:10:07.397Z,3.03
2022-09-22T12:12:43.808Z,3.23
2022-09-22T12:15:38.852Z,3.80
2022-09-22T12:18:22.940Z,3.27
2022-09-22T12:21:00.891Z,2.87
2022-09-22T12:24:06.837Z,3.20
2022-09-22T12:26:43.134Z,3.47
2022-09-22T12:29:29.901Z,2.27
2022-09-22T12:32:03.842Z,2.20
2022-09-22T12:34:51.125Z,1.70
2022-09-22T12:37:39.879Z,2.37
2022-09-22T12:40:40.389Z,3.23
2022-09-22T12:43:22.517Z,3.33
2022-09-22T12:45:53.076Z,3.43
2022-09-22T12:48:32.300Z,2.43
2022-09-22T12:51:33.323Z,2.70
2022-09-22T12:54:52.424Z,4.17
2022-09-22T12:57:31.490Z,2.80
2022-09-22T13:00:22.991Z,4.87
2022-09-22T13:02:51.543Z,4.63
2022-09-22T13:05:48.928Z,6.10
2022-09-22T13:08:29.921Z,3.73
2022-09-22T13:11:03.414Z,3.97
2022-09-22T13:13:52.517Z,3.27
2022-09-22T13:16:41.332Z,6.17
2022-09-22T13:19:11.908Z,5.70
2022-09-22T13:21:42.589Z,3.03
2022-09-22T13:24:31.089Z,3.33
2022-09-22T13:27:05.964Z,4.93
2022-09-22T13:29:35.520Z,3.47
2022-09-22T13:32:30.012Z,2.43
2022-09-22T13:35:02.118Z,1.13
2022-09-22T13:37:44.999Z,1.63
2022-09-22T13:40:18.971Z,3.60
2022-09-22T13:42:51.333Z,1.50
2022-09-22T13:45:30.837Z,5.50
2022-09-22T13:48:20.018Z,1.33
2022-09-22T13:51:00.173Z,1.00
2022-09-22T13:53:32.006Z,0.83
2022-09-22T13:56:03.612Z,0.97
2022-09-22T13:58:37.841Z,2.67
2022-09-22T14:01:26.586Z,1.83
2022-09-22T14:03:58.959Z,1.63
2022-09-22T14:06:39.489Z,1.40
2022-09-22T14:09:11.829Z,2.63
2022-09-22T14:11:41.877Z,2.33
2022-09-22T14:14:23.338Z,2.73
2022-09-22T14:16:53.521Z,0.93
2022-09-22T14:19:43.106Z,2.53
2022-09-22T14:22:23.662Z,1.53
2022-09-22T14:25:00.097Z,3.90
2022-09-22T14:27:59.980Z,1.53
2022-09-22T14:30:45.447Z,1.43
2022-09-22T14:33:23.683Z,2.10
2022-09-22T14:36:03.173Z,3.57
2022-09-22T14:38:44.358Z,5.17
2022-09-22T14:41:23.249Z,3.40
2022-09-22T14:43:52.945Z,1.83
2022-09-22T14:46:33.769Z,2.70
2022-09-22T14:49:40.603Z,3.70
2022-09-22T14:52:30.353Z,3.67
2022-09-22T14:55:23.441Z,2.50
2022-09-22T14:57:52.280Z,3.53
2022-09-22T15:00:40.146Z,4.50
2022-09-22T15:03:23.549Z,3.37
2022-09-22T15:05:51.950Z,2.60
2022-09-22T15:08:33.409Z,2.97
2022-09-22T15:11:03.511Z,6.90
2022-09-22T15:13:42.118Z,4.63
2022-09-22T15:16:43.582Z,3.40
2022-09-22T15:19:13.334Z,2.83
2022-09-22T15:21:51.289Z,3.13
2022-09-22T15:24:51.789Z,3.00
2022-09-22T15:27:22.967Z,2.93
2022-09-22T15:29:59.481Z,2.47
2022-09-22T15:32:33.510Z,3.10
2022-09-22T15:35:01.870Z,2.80
2022-09-22T15:37:33.634Z,2.03
2022-09-22T15:40:20.325Z,3.40
2022-09-22T15:43:11.850Z,3.63
2022-09-22T15:45:50.468Z,4.10
2022-09-22T15:48:31.595Z,2.30
2022-09-22T15:51:07.937Z,2.87
2022-09-22T15:53:42.059Z,3.53
2022-09-22T15:56:17.085Z,5.33
2022-09-22T15:58:45.217Z,1.37
2022-09-22T16:01:17.624Z,2.27
2022-09-22T16:03:51.482Z,5.33
2022-09-22T16:06:23.596Z,3.77
2022-09-22T16:09:00.514Z,2.07
2022-09-22T16:11:40.378Z,3.20
2022-09-22T16:14:11.884Z,1.20
2022-09-22T16:16:43.092Z,2.50
2022-09-22T16:19:12.497Z,1.20
2022-09-22T16:21:51.805Z,4.10
2022-09-22T16:24:22.722Z,3.83
2022-09-22T16:26:54.182Z,5.23
2022-09-22T16:29:28.366Z,6.40
2022-09-22T16:32:03.372Z,2.80
2022-09-22T16:34:32.196Z,3.03
2022-09-22T16:37:03.468Z,3.43
2022-09-22T16:39:32.254Z,1.97
2022-09-22T16:42:03.271Z,2.83
2022-09-22T16:44:32.269Z,3.87
2022-09-22T16:47:02.316Z,2.53
2022-09-22T16:49:34.081Z,3.23
2022-09-22T16:52:02.534Z,2.00
2022-09-22T16:54:33.765Z,4.40
2022-09-22T16:57:13.762Z,1.80
2022-09-22T16:59:42.133Z,2.50
2022-09-22T17:02:12.304Z,3.10
2022-09-22T17:04:43.474Z,2.40
2022-09-22T17:07:14.010Z,2.20
2022-09-22T17:09:42.398Z,3.43
2022-09-22T17:12:12.160Z,4.10
2022-09-22T17:14:43.579Z,4.27
2022-09-22T17:17:12.171Z,3.37
2022-09-22T17:19:43.250Z,4.37
2022-09-22T17:22:12.973Z,2.40
2022-09-22T17:24:43.301Z,1.90
2022-09-22T17:27:13.572Z,2.20
2022-09-22T17:29:42.317Z,3.93
2022-09-22T17:32:19.300Z,3.10
2022-09-22T17:34:52.730Z,2.40
2022-09-22T17:37:23.552Z,3.27
2022-09-22T17:39:52.173Z,2.13
2022-09-22T17:42:24.288Z,1.30
2022-09-22T17:44:52.274Z,2.60
2022-09-22T17:47:42.938Z,3.20
2022-09-22T17:50:39.489Z,2.13
2022-09-22T17:53:33.661Z,3.33
2022-09-22T17:56:07.601Z,2.33
2022-09-22T17:58:42.085Z,1.87
2022-09-22T18:01:12.377Z,2.73
2022-09-22T18:03:45.985Z,3.90
2022-09-22T18:06:15.849Z,3.20
2022-09-22T18:08:46.154Z,2.30
2022-09-22T18:11:14.185Z,2.87
2022-09-22T18:13:46.748Z,2.97
2022-09-22T18:16:19.781Z,3.33
2022-09-22T18:19:11.438Z,2.83
2022-09-22T18:21:46.440Z,2.90
2022-09-22T18:24:20.984Z,2.60
2022-09-22T18:26:58.757Z,2.70
2022-09-22T18:29:41.087Z,4.97
2022-09-22T18:32:14.076Z,5.83
2022-09-22T18:34:44.651Z,3.63
2022-09-22T18:37:21.440Z,2.93
2022-09-22T18:39:50.448Z,3.17
2022-09-22T18:42:24.502Z,5.57
2022-09-22T18:44:54.265Z,3.63
2022-09-22T18:47:23.301Z,5.30
2022-09-22T18:49:52.525Z,2.77
2022-09-22T18:52:24.700Z,1.63
2022-09-22T18:55:07.295Z,1.80
2022-09-22T18:57:43.012Z,4.10
2022-09-22T19:00:20.085Z,4.13
2022-09-22T19:02:53.993Z,5.70
2022-09-22T19:05:22.591Z,2.03
2022-09-22T19:07:53.358Z,2.63
2022-09-22T19:10:23.415Z,4.00
2022-09-22T19:12:52.554Z,3.70
2022-09-22T19:15:28.225Z,5.90
2022-09-22T19:18:04.249Z,3.23
2022-09-22T19:20:35.177Z,9.27
2022-09-22T19:23:12.111Z,2.60
2022-09-22T19:25:54.302Z,3.00
2022-09-22T19:28:23.375Z,3.37
2022-09-22T19:30:53.592Z,3.03
2022-09-22T19:33:22.825Z,4.57
2022-09-22T19:35:52.606Z,2.63
2022-09-22T19:38:22.778Z,5.27
2022-09-22T19:41:00.426Z,4.93
2022-09-22T19:43:34.222Z,2.47
2022-09-22T19:46:09.984Z,5.67
2022-09-22T19:48:41.120Z,5.47
2022-09-22T19:51:14.658Z,4.40
2022-09-22T19:53:43.050Z,4.27
2022-09-22T19:56:12.829Z,4.33
2022-09-22T19:58:44.413Z,5.13
2022-09-22T20:01:33.603Z,3.07
2022-09-22T20:04:03.413Z,6.03
2022-09-22T20:06:33.842Z,3.03
2022-09-22T20:09:03.617Z,4.77
2022-09-22T20:12:06.858Z,6.30
2022-09-22T20:14:42.756Z,5.07
2022-09-22T20:17:11.834Z,3.87
2022-09-22T20:19:44.607Z,4.13
2022-09-22T20:22:31.186Z,4.67
2022-09-22T20:25:12.410Z,4.30
2022-09-22T20:27:43.315Z,3.47
2022-09-22T20:30:22.186Z,3.47
2022-09-22T20:32:54.826Z,3.33
2022-09-22T20:35:22.776Z,2.87
2022-09-22T20:37:52.493Z,2.87
2022-09-22T20:40:23.174Z,2.63
2022-09-22T20:42:57.679Z,3.60
2022-09-22T20:45:33.887Z,3.00
2022-09-22T20:48:04.033Z,3.97
2022-09-22T20:50:32.651Z,2.50
2022-09-22T20:53:00.978Z,3.53
2022-09-22T20:55:28.874Z,2.67
2022-09-22T20:57:56.545Z,3.07
2022-09-22T21:00:24.274Z,3.27
2022-09-22T21:02:54.241Z,3.83
2022-09-22T21:05:24.131Z,3.93
2022-09-22T21:08:15.024Z,8.43
2022-09-22T21:10:42.876Z,6.00
2022-09-22T21:13:14.839Z,4.03
2022-09-22T21:15:43.010Z,4.80
2022-09-22T21:18:11.450Z,5.83
2022-09-22T21:20:43.733Z,4.73
2022-09-22T21:23:13.613Z,2.47
2022-09-22T21:25:41.557Z,4.73
2022-09-22T21:29:04.249Z,3.73
2022-09-22T21:31:39.647Z,4.03
2022-09-22T21:34:13.050Z,3.03
2022-09-22T21:36:43.547Z,4.43
2022-09-22T21:39:13.588Z,4.10
2022-09-22T21:41:48.341Z,5.77
2022-09-22T21:44:29.888Z,3.90
2022-09-22T21:47:25.003Z,3.03
2022-09-22T21:49:52.914Z,5.37
2022-09-22T21:52:23.873Z,3.73
2022-09-22T21:54:53.075Z,3.63
2022-09-22T21:57:23.330Z,3.07
2022-09-22T21:59:56.129Z,3.20
2022-09-22T22:02:26.593Z,2.63
2022-09-22T22:05:11.398Z,3.13
2022-09-22T22:07:40.621Z,4.30
2022-09-22T22:10:09.194Z,3.47
2022-09-22T22:12:42.053Z,3.50
2022-09-22T22:15:12.428Z,4.37
2022-09-22T22:17:40.479Z,3.90
2022-09-22T22:20:20.143Z,2.37
2022-09-22T22:23:01.543Z,3.30
2022-09-22T22:25:41.503Z,2.73
2022-09-22T22:28:09.322Z,3.33
2022-09-22T22:30:40.963Z,5.00
2022-09-22T22:33:08.719Z,4.17
2022-09-22T22:35:36.386Z,2.37
2022-09-22T22:38:05.411Z,2.63
2022-09-22T22:40:33.186Z,3.50
2022-09-22T22:43:00.981Z,2.83
2022-09-22T22:45:28.755Z,3.00
2022-09-22T22:48:01.134Z,3.30
2022-09-22T22:50:33.308Z,4.00
2022-09-22T22:53:10.663Z,2.53
2022-09-22T22:55:39.120Z,3.50
2022-09-22T22:58:12.948Z,3.40
2022-09-22T23:00:44.974Z,2.47
2022-09-22T23:03:12.719Z,3.30
2022-09-22T23:05:43.733Z,3.33
2022-09-22T23:08:14.508Z,2.83
2022-09-22T23:10:46.809Z,2.57
2022-09-22T23:13:15.242Z,3.17
2022-09-22T23:15:44.326Z,3.37
2022-09-22T23:18:12.071Z,2.97
2022-09-22T23:20:39.725Z,3.73
2022-09-22T23:23:07.392Z,3.63
2022-09-22T23:25:37.449Z,3.70
2022-09-22T23:28:07.886Z,3.40
2022-09-22T23:30:35.830Z,4.90
2022-09-22T23:33:03.617Z,2.90
2022-09-22T23:35:31.383Z,3.20
2022-09-22T23:37:59.118Z,2.63
2022-09-22T23:40:27.469Z,2.27
2022-09-22T23:42:59.639Z,5.10
2022-09-22T23:45:29.390Z,4.33
2022-09-22T23:47:57.224Z,4.07
2022-09-22T23:50:24.893Z,4.30
2022-09-22T23:52:52.615Z,2.87
2022-09-22T23:55:20.296Z,3.57
2022-09-22T23:57:48.095Z,3.17
